createdAt,value
2019-01-16T00:00:30.362Z,100265.94
2019-01-16T00:03:19.690Z,100254.65
2019-01-16T00:06:13.323Z,100260.73
2019-01-16T00:09:12.631Z,100253.37
2019-01-16T00:12:12.159Z,100264.63
2019-01-16T00:15:08.077Z,100257.26
2019-01-16T00:17:53.617Z,100258.11
2019-01-16T00:20:46.312Z,100250.77
2019-01-16T00:23:27.029Z,100250.77
2019-01-16T00:26:23.626Z,100260.31
2019-01-16T00:29:14.562Z,100259.00
2019-01-16T00:32:16.885Z,100249.89
2019-01-16T00:35:10.151Z,100255.09
2019-01-16T00:38:00.196Z,100258.14
2019-01-16T00:41:08.328Z,100247.28
2019-01-16T00:43:58.545Z,100248.59
2019-01-16T00:47:00.448Z,100256.81
2019-01-16T00:49:48.736Z,100271.56
2019-01-16T00:52:41.734Z,100273.30
2019-01-16T00:55:27.436Z,100254.66
2019-01-16T00:58:20.111Z,100265.91
2019-01-16T01:01:22.296Z,100267.66
2019-01-16T01:04:19.787Z,100279.38
2019-01-16T01:07:13.046Z,100275.91
2019-01-16T01:10:02.326Z,100272.00
2019-01-16T01:13:01.538Z,100272.86
2019-01-16T01:15:50.323Z,100276.77
2019-01-16T01:18:53.070Z,100271.56
2019-01-16T01:21:46.338Z,100278.06
2019-01-16T01:24:51.517Z,100270.25
2019-01-16T01:27:41.894Z,100272.86
2019-01-16T01:30:41.394Z,100276.77
2019-01-16T01:33:30.136Z,100278.92
2019-01-16T01:36:20.428Z,100272.00
2019-01-16T01:39:09.598Z,100275.02
2019-01-16T01:41:58.083Z,100275.47
2019-01-16T01:44:58.200Z,100271.13
2019-01-16T01:48:06.829Z,100278.50
2019-01-16T01:50:56.727Z,100274.18
2019-01-16T01:53:37.292Z,100272.86
2019-01-16T01:56:21.115Z,100272.44
2019-01-16T01:59:14.057Z,100285.01
2019-01-16T02:02:06.403Z,100277.20
2019-01-16T02:04:54.778Z,100275.90
2019-01-16T02:07:39.778Z,100273.75
2019-01-16T02:10:29.264Z,100277.64
2019-01-16T02:13:16.538Z,100274.19
2019-01-16T02:16:02.215Z,100277.65
2019-01-16T02:18:54.486Z,100281.98
2019-01-16T02:22:00.258Z,100280.28
2019-01-16T02:24:52.952Z,100278.95
2019-01-16T02:27:46.851Z,100272.00
2019-01-16T02:30:39.872Z,100272.00
2019-01-16T02:33:35.889Z,100272.91
2019-01-16T02:36:41.106Z,100269.86
2019-01-16T02:39:25.798Z,100264.66
2019-01-16T02:42:19.073Z,100263.80
2019-01-16T02:45:15.077Z,100257.28
2019-01-16T02:48:04.228Z,100253.83
2019-01-16T02:50:57.379Z,100248.20
2019-01-16T02:53:53.628Z,100246.45
2019-01-16T02:56:49.570Z,100245.13
2019-01-16T02:59:37.005Z,100248.17
2019-01-16T03:02:17.892Z,100246.03
2019-01-16T03:05:08.134Z,100236.48
2019-01-16T03:08:10.186Z,100241.69
2019-01-16T03:14:09.029Z,100239.97
2019-01-16T03:16:59.491Z,100244.30
2019-01-16T03:19:47.816Z,100233.89
2019-01-16T03:22:37.850Z,100236.05
2019-01-16T03:25:33.937Z,100234.75
2019-01-16T03:28:32.587Z,100228.70
2019-01-16T03:31:25.352Z,100218.30
2019-01-16T03:34:21.545Z,100220.04
2019-01-16T03:37:10.838Z,100221.34
2019-01-16T03:40:01.115Z,100216.14
2019-01-16T03:42:46.735Z,100218.71
2019-01-16T03:45:37.461Z,100213.09
2019-01-16T03:48:45.470Z,100212.23
2019-01-16T03:51:33.531Z,100210.05
2019-01-16T03:54:30.127Z,100210.06
2019-01-16T03:57:25.829Z,100205.28
2019-01-16T04:00:33.768Z,100205.28
2019-01-16T04:03:23.035Z,100207.03
2019-01-16T04:06:19.122Z,100196.21
2019-01-16T04:09:18.359Z,100195.79
2019-01-16T04:12:07.054Z,100192.30
2019-01-16T04:14:49.562Z,100192.31
2019-01-16T04:17:37.178Z,100186.23
2019-01-16T04:20:21.284Z,100186.66
2019-01-16T04:23:01.971Z,100177.14
2019-01-16T04:26:10.936Z,100180.61
2019-01-16T04:29:04.849Z,100180.16
2019-01-16T04:31:53.771Z,100177.58
2019-01-16T04:34:41.035Z,100174.97
2019-01-16T04:37:40.065Z,100167.17
2019-01-16T04:40:29.828Z,100171.06
2019-01-16T04:43:11.955Z,100174.55
2019-01-16T04:46:04.856Z,100167.59
2019-01-16T04:49:01.831Z,100164.13
2019-01-16T04:51:50.537Z,100165.44
2019-01-16T04:54:40.481Z,100161.97
2019-01-16T04:57:30.947Z,100158.52
2019-01-16T05:00:11.487Z,100158.06
2019-01-16T05:03:16.387Z,100153.77
2019-01-16T05:06:04.755Z,100142.92
2019-01-16T05:09:07.195Z,100144.66
2019-01-16T05:12:06.348Z,100139.88
2019-01-16T05:15:15.513Z,100139.03
2019-01-16T05:18:03.804Z,100139.03
2019-01-16T05:20:57.157Z,100127.31
2019-01-16T05:23:53.194Z,100122.55
2019-01-16T05:26:42.571Z,100126.88
2019-01-16T05:29:41.597Z,100114.78
2019-01-16T05:32:37.687Z,100123.42
2019-01-16T05:35:31.666Z,100119.52
2019-01-16T05:38:24.447Z,100111.72
2019-01-16T05:41:26.011Z,100110.41
2019-01-16T05:44:31.460Z,100116.94
2019-01-16T05:47:18.995Z,100115.19
2019-01-16T05:50:05.715Z,100107.81
2019-01-16T05:52:50.458Z,100108.25
2019-01-16T05:55:56.487Z,100106.08
2019-01-16T05:58:57.217Z,100103.49
2019-01-16T06:01:47.200Z,100103.05
2019-01-16T06:04:45.794Z,100103.90
2019-01-16T06:07:35.167Z,100094.38
2019-01-16T06:10:28.463Z,100088.75
2019-01-16T06:13:17.334Z,100091.34
2019-01-16T06:16:19.609Z,100100.44
2019-01-16T06:19:12.944Z,100089.59
2019-01-16T06:22:00.811Z,100089.59
2019-01-16T06:24:50.940Z,100089.59
2019-01-16T06:27:47.202Z,100090.84
2019-01-16T06:30:33.347Z,100083.91
2019-01-16T06:33:18.229Z,100096.94
2019-01-16T06:36:08.187Z,100087.39
2019-01-16T06:39:05.026Z,100092.61
2019-01-16T06:42:13.676Z,100089.53
2019-01-16T06:45:02.309Z,100084.79
2019-01-16T06:47:58.163Z,100092.60
2019-01-16T06:50:48.092Z,100087.38
2019-01-16T06:53:56.827Z,100090.84
2019-01-16T06:56:58.568Z,100084.36
2019-01-16T06:59:48.208Z,100089.11
2019-01-16T07:02:35.131Z,100082.62
2019-01-16T07:05:34.711Z,100080.45
2019-01-16T07:08:30.273Z,100091.72
2019-01-16T07:11:20.113Z,100082.19
2019-01-16T07:14:08.500Z,100082.62
2019-01-16T07:17:16.259Z,100077.83
2019-01-16T07:20:09.769Z,100088.26
2019-01-16T07:23:07.995Z,100086.95
2019-01-16T07:26:06.684Z,100089.98
2019-01-16T07:29:06.013Z,100100.81
2019-01-16T07:32:11.025Z,100089.55
2019-01-16T07:34:54.553Z,100093.45
2019-01-16T07:37:41.336Z,100091.72
2019-01-16T07:40:43.665Z,100089.55
2019-01-16T07:43:32.218Z,100093.02
2019-01-16T07:46:17.179Z,100092.57
2019-01-16T07:49:05.597Z,100102.53
2019-01-16T07:51:57.406Z,100095.16
2019-01-16T07:54:46.934Z,100095.14
2019-01-16T07:57:27.894Z,100099.46
2019-01-16T08:00:35.378Z,100099.46
2019-01-16T08:03:25.575Z,100102.95
2019-01-16T08:06:24.195Z,100105.98
2019-01-16T08:09:12.262Z,100106.41
2019-01-16T08:12:17.011Z,100103.82
2019-01-16T08:15:09.326Z,100114.19
2019-01-16T08:17:52.896Z,100105.50
2019-01-16T08:20:45.564Z,100101.14
2019-01-16T08:23:35.087Z,100103.32
2019-01-16T08:26:31.712Z,100105.92
2019-01-16T08:29:21.658Z,100094.23
2019-01-16T08:32:11.335Z,100099.03
2019-01-16T08:34:59.451Z,100098.14
2019-01-16T08:38:06.972Z,100088.59
2019-01-16T08:40:54.827Z,100089.05
2019-01-16T08:43:40.331Z,100089.47
2019-01-16T08:46:28.790Z,100085.56
2019-01-16T08:49:33.657Z,100090.75
2019-01-16T08:52:38.362Z,100086.44
2019-01-16T08:55:40.102Z,100088.59
2019-01-16T08:58:29.980Z,100088.15
2019-01-16T09:01:32.567Z,100093.33
2019-01-16T09:04:22.866Z,100082.48
2019-01-16T09:07:15.616Z,100085.09
2019-01-16T09:10:01.140Z,100079.89
2019-01-16T09:12:51.083Z,100086.36
2019-01-16T09:15:43.747Z,100081.17
2019-01-16T09:18:28.259Z,100085.49
2019-01-16T09:21:27.018Z,100079.00
2019-01-16T09:24:19.759Z,100079.44
2019-01-16T09:27:08.382Z,100070.75
2019-01-16T09:30:10.298Z,100073.34
2019-01-16T09:33:01.235Z,100070.27
2019-01-16T09:35:56.926Z,100067.66
2019-01-16T09:38:46.553Z,100073.72
2019-01-16T09:41:34.668Z,100067.22
2019-01-16T09:44:24.504Z,100070.25
2019-01-16T09:47:26.501Z,100059.39
2019-01-16T09:50:34.369Z,100055.50
2019-01-16T09:53:23.104Z,100059.38
2019-01-16T09:56:24.910Z,100058.53
2019-01-16T09:59:20.597Z,100057.64
2019-01-16T10:05:28.588Z,100054.61
2019-01-16T10:08:16.316Z,100051.58
2019-01-16T10:11:15.801Z,100043.28
2019-01-16T10:14:08.694Z,100050.23
2019-01-16T10:17:09.263Z,100041.52
2019-01-16T10:20:04.215Z,100041.09
2019-01-16T10:22:59.984Z,100034.97
2019-01-16T10:25:47.413Z,100038.45
2019-01-16T10:28:40.394Z,100029.74
2019-01-16T10:31:41.814Z,100022.36
2019-01-16T10:34:46.868Z,100016.70
2019-01-16T10:37:35.372Z,100019.70
2019-01-16T10:40:24.073Z,100014.91
2019-01-16T10:43:26.090Z,100001.45
2019-01-16T10:46:07.814Z,100004.93
2019-01-16T10:48:49.803Z,100000.13
2019-01-16T10:51:37.870Z,100000.09
2019-01-16T10:54:36.255Z,99993.96
2019-01-16T10:57:24.631Z,99974.49
2019-01-16T11:00:23.187Z,99980.08
2019-01-16T11:03:16.335Z,99974.87
2019-01-16T11:06:16.475Z,99976.17
2019-01-16T11:09:06.441Z,99977.44
2019-01-16T11:12:08.586Z,99980.88
2019-01-16T11:14:55.059Z,99965.22
2019-01-16T11:18:03.147Z,99957.01
2019-01-16T11:20:51.730Z,99953.97
2019-01-16T11:23:50.901Z,99951.77
2019-01-16T11:26:38.838Z,99947.42
2019-01-16T11:29:27.287Z,99944.75
2019-01-16T11:32:14.560Z,99930.45
2019-01-16T11:35:03.794Z,99936.06
2019-01-16T11:37:59.639Z,99928.72
2019-01-16T11:41:05.781Z,99926.91
2019-01-16T11:44:13.632Z,99933.90
2019-01-16T11:46:50.203Z,99920.91
2019-01-16T11:49:58.324Z,99916.59
2019-01-16T11:52:56.739Z,99905.75
2019-01-16T11:55:55.986Z,99907.38
2019-01-16T11:58:32.172Z,99901.30
2019-01-16T12:01:21.784Z,99896.45
2019-01-16T12:07:17.009Z,99895.11
2019-01-16T12:10:03.811Z,99890.37
2019-01-16T12:12:46.975Z,99900.36
2019-01-16T12:15:52.022Z,99893.44
2019-01-16T12:18:49.858Z,99895.30
2019-01-16T12:21:48.235Z,99886.06
2019-01-16T12:24:44.289Z,99892.14
2019-01-16T12:27:34.201Z,99881.80
2019-01-16T12:30:25.747Z,99879.66
2019-01-16T12:33:04.566Z,99879.19
2019-01-16T12:35:52.069Z,99866.09
2019-01-16T12:38:40.443Z,99871.77
2019-01-16T12:41:28.320Z,99873.04
2019-01-16T12:44:33.050Z,99867.83
2019-01-16T12:47:21.346Z,99869.60
2019-01-16T12:50:20.178Z,99866.67
2019-01-16T12:53:18.708Z,99863.02
2019-01-16T12:56:16.916Z,99861.79
2019-01-16T12:58:57.955Z,99851.37
2019-01-16T13:01:43.338Z,99861.03
2019-01-16T13:04:26.976Z,99856.58
2019-01-16T13:07:31.919Z,99852.20
2019-01-16T13:10:22.647Z,99858.71
2019-01-16T13:13:15.881Z,99843.55
2019-01-16T13:16:04.238Z,99841.77
2019-01-16T13:19:00.148Z,99833.61
2019-01-16T13:21:49.893Z,99835.45
2019-01-16T13:24:38.909Z,99831.95
2019-01-16T13:27:27.100Z,99830.61
2019-01-16T13:30:30.136Z,99831.55
2019-01-16T13:33:28.484Z,99829.73
2019-01-16T13:36:17.992Z,99827.09
2019-01-16T13:38:55.487Z,99819.75
2019-01-16T13:41:55.401Z,99810.76
2019-01-16T13:44:51.195Z,99812.84
2019-01-16T13:47:49.829Z,99805.94
2019-01-16T13:50:39.005Z,99809.25
2019-01-16T13:53:26.829Z,99809.41
2019-01-16T13:56:08.441Z,99805.78
2019-01-16T13:58:50.947Z,99804.59
2019-01-16T14:01:52.200Z,99800.18
2019-01-16T14:04:32.478Z,99803.30
2019-01-16T14:07:20.634Z,99803.85
2019-01-16T14:10:06.761Z,99799.04
2019-01-16T14:13:05.472Z,99798.61
2019-01-16T14:15:53.652Z,99793.95
2019-01-16T14:18:55.186Z,99793.55
2019-01-16T14:21:40.464Z,99792.25
2019-01-16T14:24:45.225Z,99790.13
2019-01-16T14:27:33.288Z,99782.74
2019-01-16T14:30:25.907Z,99788.39
2019-01-16T14:33:18.427Z,99787.19
2019-01-16T14:36:08.119Z,99781.08
2019-01-16T14:38:56.295Z,99780.69
2019-01-16T14:42:03.827Z,99774.22
2019-01-16T14:44:44.626Z,99773.78
2019-01-16T14:47:53.262Z,99765.14
2019-01-16T14:50:54.847Z,99765.97
2019-01-16T14:53:56.350Z,99759.78
2019-01-16T14:56:44.413Z,99758.13
2019-01-16T14:59:36.867Z,99751.30
2019-01-16T15:02:25.067Z,99751.22
2019-01-16T15:05:16.505Z,99748.15
2019-01-16T15:08:04.749Z,99754.84
2019-01-16T15:10:49.045Z,99752.13
2019-01-16T15:13:44.338Z,99748.33
2019-01-16T15:16:32.575Z,99744.47
2019-01-16T15:19:34.162Z,99743.61
2019-01-16T15:22:32.759Z,99745.34
2019-01-16T15:25:25.074Z,99741.91
2019-01-16T15:28:14.620Z,99735.87
2019-01-16T15:30:58.853Z,99735.91
2019-01-16T15:33:48.429Z,99737.67
2019-01-16T15:36:47.734Z,99732.91
2019-01-16T15:39:37.533Z,99733.81
2019-01-16T15:42:27.536Z,99726.04
2019-01-16T15:45:16.340Z,99732.14
2019-01-16T15:48:08.943Z,99726.55
2019-01-16T15:50:57.310Z,99710.54
2019-01-16T15:53:45.615Z,99717.08
2019-01-16T15:56:44.287Z,99704.94
2019-01-16T15:59:23.179Z,99693.77
2019-01-16T16:02:11.171Z,99705.04
2019-01-16T16:05:04.271Z,99705.94
2019-01-16T16:07:57.642Z,99715.91
2019-01-16T16:10:49.087Z,99699.07
2019-01-16T16:13:31.552Z,99699.97
2019-01-16T16:16:19.387Z,99703.87
2019-01-16T16:25:04.441Z,99691.36
2019-01-16T16:27:57.154Z,99673.63
2019-01-16T16:30:46.717Z,99676.27
2019-01-16T16:33:36.259Z,99688.48
2019-01-16T16:36:24.752Z,99681.96
2019-01-16T16:39:17.967Z,99671.63
2019-01-16T16:42:07.747Z,99680.75
2019-01-16T16:44:56.011Z,99670.81
2019-01-16T16:47:55.028Z,99670.81
2019-01-16T16:50:36.166Z,99666.98
2019-01-16T16:53:25.879Z,99663.11
2019-01-16T16:56:10.868Z,99669.17
2019-01-16T16:58:58.986Z,99666.14
2019-01-16T17:01:43.993Z,99670.88
2019-01-16T17:04:44.295Z,99660.56
2019-01-16T17:07:48.803Z,99660.59
2019-01-16T17:10:36.282Z,99653.23
2019-01-16T17:13:31.863Z,99653.69
2019-01-16T17:16:24.719Z,99645.49
2019-01-16T17:19:13.990Z,99643.81
2019-01-16T17:22:19.626Z,99637.35
2019-01-16T17:25:07.829Z,99649.47
2019-01-16T17:28:15.851Z,99643.43
2019-01-16T17:31:04.466Z,99629.15
2019-01-16T17:33:53.047Z,99629.20
2019-01-16T17:36:50.304Z,99626.20
2019-01-16T17:39:43.179Z,99624.91
2019-01-16T17:42:23.308Z,99623.62
2019-01-16T17:45:31.731Z,99628.39
2019-01-16T17:48:21.330Z,99628.81
2019-01-16T17:51:19.827Z,99626.66
2019-01-16T17:54:08.767Z,99610.65
2019-01-16T17:56:58.655Z,99600.28
2019-01-16T17:59:46.738Z,99606.38
2019-01-16T18:02:29.056Z,99610.27
2019-01-16T18:08:22.395Z,99602.06
2019-01-16T18:11:06.295Z,99576.56
2019-01-16T18:13:56.284Z,99563.55
2019-01-16T18:16:45.152Z,99573.56
2019-01-16T18:19:34.714Z,99558.45
2019-01-16T18:22:27.673Z,99569.27
2019-01-16T18:25:20.257Z,99569.72
2019-01-16T18:28:04.674Z,99562.83
2019-01-16T18:31:01.084Z,99561.09
2019-01-16T18:34:06.074Z,99555.50
2019-01-16T18:36:57.291Z,99569.77
2019-01-16T18:39:47.828Z,99580.19
2019-01-16T18:42:40.734Z,99558.59
2019-01-16T18:45:30.051Z,99550.84
2019-01-16T18:48:26.555Z,99551.27
2019-01-16T18:51:34.572Z,99539.62
2019-01-16T18:54:24.436Z,99524.50
2019-01-16T18:57:17.439Z,99525.39
2019-01-16T19:00:12.798Z,99524.98
2019-01-16T19:03:01.286Z,99511.58
2019-01-16T19:05:53.994Z,99514.63
2019-01-16T19:08:42.294Z,99520.27
2019-01-16T19:11:32.601Z,99502.55
2019-01-16T19:14:16.155Z,99520.68
2019-01-16T19:17:03.667Z,99515.99
2019-01-16T19:19:53.248Z,99522.05
2019-01-16T19:22:58.075Z,99524.27
2019-01-16T19:25:57.927Z,99524.27
2019-01-16T19:28:47.042Z,99516.51
2019-01-16T19:31:36.758Z,99515.64
2019-01-16T19:34:26.715Z,99507.44
2019-01-16T19:37:19.181Z,99524.77
2019-01-16T19:43:22.386Z,99516.16
2019-01-16T19:46:18.302Z,99511.00
2019-01-16T19:49:20.335Z,99502.83
2019-01-16T19:52:01.285Z,99498.94
2019-01-16T19:54:53.914Z,99495.92
2019-01-16T19:57:34.512Z,99496.36
2019-01-16T20:00:24.507Z,99486.00
2019-01-16T20:03:12.718Z,99483.45
2019-01-16T20:06:08.626Z,99480.86
2019-01-16T20:08:52.309Z,99469.23
2019-01-16T20:11:41.865Z,99477.86
2019-01-16T20:14:32.139Z,99467.09
2019-01-16T20:17:12.589Z,99464.52
2019-01-16T20:20:14.439Z,99461.08
2019-01-16T20:23:12.718Z,99472.76
2019-01-16T20:25:57.247Z,99465.40
2019-01-16T20:28:47.071Z,99460.64
2019-01-16T20:31:48.599Z,99452.45
2019-01-16T20:34:33.698Z,99446.81
2019-01-16T20:37:21.595Z,99448.99
2019-01-16T20:40:10.401Z,99432.56
2019-01-16T20:43:15.371Z,99432.13
2019-01-16T20:46:21.670Z,99434.27
2019-01-16T20:49:11.655Z,99420.89
2019-01-16T20:51:59.898Z,99413.54
2019-01-16T20:54:49.398Z,99409.22
2019-01-16T20:57:38.891Z,99406.22
2019-01-16T21:00:33.076Z,99397.13
2019-01-16T21:03:23.207Z,99377.73
2019-01-16T21:06:07.744Z,99372.99
2019-01-16T21:08:51.278Z,99365.25
2019-01-16T21:11:36.616Z,99375.16
2019-01-16T21:14:29.004Z,99371.27
2019-01-16T21:17:12.179Z,99359.64
2019-01-16T21:20:00.227Z,99360.06
2019-01-16T21:22:48.419Z,99364.86
2019-01-16T21:25:26.177Z,99360.10
2019-01-16T21:28:39.781Z,99357.52
2019-01-16T21:31:44.536Z,99354.08
2019-01-16T21:34:48.968Z,99349.80
2019-01-16T21:37:42.013Z,99346.34
2019-01-16T21:40:30.151Z,99348.06
2019-01-16T21:43:14.855Z,99336.42
2019-01-16T21:46:04.920Z,99327.31
2019-01-16T21:48:47.890Z,99315.32
2019-01-16T21:51:47.015Z,99310.91
2019-01-16T21:54:33.917Z,99314.39
2019-01-16T21:57:26.548Z,99306.23
2019-01-16T22:00:28.930Z,99305.80
2019-01-16T22:03:17.154Z,99300.14
2019-01-16T22:06:09.893Z,99293.33
2019-01-16T22:09:08.547Z,99289.78
2019-01-16T22:11:56.633Z,99283.28
2019-01-16T22:14:46.148Z,99279.44
2019-01-16T22:17:44.491Z,99284.20
2019-01-16T22:20:25.763Z,99281.96
2019-01-16T22:23:21.834Z,99272.06
2019-01-16T22:26:21.012Z,99276.79
2019-01-16T22:29:09.308Z,99263.40
2019-01-16T22:32:00.923Z,99254.75
2019-01-16T22:35:00.182Z,99257.68
2019-01-16T22:37:46.718Z,99250.77
2019-01-16T22:40:35.358Z,99248.18
2019-01-16T22:43:27.666Z,99243.41
2019-01-16T22:46:17.943Z,99250.75
2019-01-16T22:49:04.794Z,99244.64
2019-01-16T22:51:54.381Z,99235.55
2019-01-16T22:54:42.518Z,99238.14
2019-01-16T22:57:35.117Z,99235.52
2019-01-16T23:00:29.499Z,99235.52
2019-01-16T23:03:19.514Z,99229.00
2019-01-16T23:06:07.640Z,99222.49
2019-01-16T23:08:56.198Z,99218.17
2019-01-16T23:11:39.938Z,99216.45
2019-01-16T23:14:22.451Z,99215.55
2019-01-16T23:17:11.969Z,99211.20
2019-01-16T23:20:02.088Z,99217.70
2019-01-16T23:23:03.753Z,99216.38
2019-01-16T23:26:05.230Z,99195.64
2019-01-16T23:29:02.935Z,99200.36
2019-01-16T23:32:01.624Z,99187.44
2019-01-16T23:34:49.875Z,99185.24
2019-01-16T23:37:39.431Z,99193.05
2019-01-16T23:40:37.198Z,99191.25
2019-01-16T23:43:25.388Z,99191.25
2019-01-16T23:46:09.469Z,99186.97
2019-01-16T23:49:17.533Z,99176.17
2019-01-16T23:51:57.748Z,99161.48
2019-01-16T23:54:53.201Z,99167.50
2019-01-16T23:57:49.393Z,99156.73
